Hauptseite
METAR-TAF:

METAR-TAF

Flughäfen :

Satu Mare, Rumänien

Breite: 47-48N, Länge: 022-53E, Höhe: 123 m

Beobachtung

Neuester Wetterbericht von vor 24 Minuten, um 03:30 UTC
Wind 3 kt aus Ost, variierte zwischen Ost/Nordost und Südost
Temperatur 19°C
Luftfeuchtigkeit 100%
Luftdruck 1016 hPa
Sichtweite: 6000 m
Starkregen

METAR: LRSM 160330Z AUTO 10003KT 070V130 6000 +RA OVC100/// 19/19 Q1016

Zeit: 06:54 (03:54 UTC)

Prognose

Neuester Wetterbericht von vor 13 Stunden und 54 Minuten, um 14:00 UTC
Gültige Prognose vom 15 um 15 UTC bis 15 um 24 UTC
Wind 8 kt aus Nord
Sichtweite 10 km oder mehr
Aufgelockert bewölkt in der Höhe von 4500 ft
Zeitweise
vom 15 um 15 UTC bis 15 um 17 UTC
Wind 20 kt aus unterschiedlichen Richtungen
Sichtweite: 5000 m
Aufgelockert bewölkt in der Höhe von 4500 ft, Kumulonimbus.
Gewitter, Leichtregen

TAF: LRSM 151400Z 1515/1524 36008KT 9999 SCT045 TEMPO 1515/1517 VRB20KT 5000 -TSRA SCT045CB

Wetterbeobachtungen und Prognosen von mehr als 4000 Flughäfen (METAR und TAF Bericht).

Die verfügbaren Stationen werden durch gelbe und rote Markierungen auf der Karte dargestellt.

Führen Sie die Maus auf sie, um den Namen der Station zu sehen.

Darauf klicken, um die Beobachtung von Wetterbeobachtungen und Prognosen zu sehen.

Um die Karte zu ändern : klicken Sie auf den grünen Tasten mit einem schwarzen Kreuz Zum Vergrößern, auf den grünen Button mit einem Gedankenstrich zu verkleinern, oder auf die grünen Pfeile für benachbarte Karten.


METAR-TAF: